Deventer/Teuge, Netherlands
Current Conditions -  °F | °C
As of 2:25 PM on Saturday 25 Oct 2014 (Local Time) from EHDL Reporting Station
Haze Haze  
Wind Chill: 57°   Ceiling: 1000
Heat Index: 57°   Visibility: 4mi
Dew Point: 55°   Wind: 6mph
Humidity: 94%   Direction: 200°SSW
Pressure: 30.06"   Gusts: NA
Location:  52.24°N, 6.05°E
Report Text: EHDL 251225Z AUTO 20005KT 6000 BR FEW007 SCT009 BKN010 14/13 Q1018 GRN
Loading
Personal Weather Stations






























Interactive Weather Map
Tropical Storm Tracking
New forecast layout! Learn more

10-Day Weather Forecast

Advertisements
Track Severe Weather on mobile